sensor_id;sensor_type;location;lat;lon;timestamp;temperature;humidity
67901;DHT22;54700;51.796;10.956;2023-07-08T00:00:12;18.00;64.00
67901;DHT22;54700;51.796;10.956;2023-07-08T00:02:42;18.00;63.80
67901;DHT22;54700;51.796;10.956;2023-07-08T00:05:09;17.90;63.20
67901;DHT22;54700;51.796;10.956;2023-07-08T00:07:37;17.90;62.70
67901;DHT22;54700;51.796;10.956;2023-07-08T00:10:10;17.90;63.00
67901;DHT22;54700;51.796;10.956;2023-07-08T00:12:38;17.90;62.50
67901;DHT22;54700;51.796;10.956;2023-07-08T00:15:07;17.90;63.30
67901;DHT22;54700;51.796;10.956;2023-07-08T00:17:34;17.90;63.40
67901;DHT22;54700;51.796;10.956;2023-07-08T00:20:01;17.80;63.40
67901;DHT22;54700;51.796;10.956;2023-07-08T00:22:34;17.80;63.70
67901;DHT22;54700;51.796;10.956;2023-07-08T00:25:01;17.80;64.00
67901;DHT22;54700;51.796;10.956;2023-07-08T00:27:28;17.70;65.10
67901;DHT22;54700;51.796;10.956;2023-07-08T00:29:57;17.70;65.60
67901;DHT22;54700;51.796;10.956;2023-07-08T00:32:26;17.60;67.20
67901;DHT22;54700;51.796;10.956;2023-07-08T00:34:53;17.50;68.20
67901;DHT22;54700;51.796;10.956;2023-07-08T00:37:20;17.50;69.10
67901;DHT22;54700;51.796;10.956;2023-07-08T00:39:47;17.40;70.00
67901;DHT22;54700;51.796;10.956;2023-07-08T00:42:15;17.40;70.20
67901;DHT22;54700;51.796;10.956;2023-07-08T00:44:43;17.30;71.50
67901;DHT22;54700;51.796;10.956;2023-07-08T00:47:11;17.20;72.10
67901;DHT22;54700;51.796;10.956;2023-07-08T00:49:42;17.20;71.50
67901;DHT22;54700;51.796;10.956;2023-07-08T00:52:22;17.10;72.50
67901;DHT22;54700;51.796;10.956;2023-07-08T00:54:50;17.10;71.80
67901;DHT22;54700;51.796;10.956;2023-07-08T00:57:18;17.10;71.40
67901;DHT22;54700;51.796;10.956;2023-07-08T00:59:47;17.10;71.20
67901;DHT22;54700;51.796;10.956;2023-07-08T01:02:19;17.10;70.80
67901;DHT22;54700;51.796;10.956;2023-07-08T01:04:52;17.00;70.80
67901;DHT22;54700;51.796;10.956;2023-07-08T01:07:25;17.00;72.60
67901;DHT22;54700;51.796;10.956;2023-07-08T01:09:54;17.00;71.70
67901;DHT22;54700;51.796;10.956;2023-07-08T01:12:25;17.00;71.00
67901;DHT22;54700;51.796;10.956;2023-07-08T01:14:55;17.00;71.30
67901;DHT22;54700;51.796;10.956;2023-07-08T01:17:25;17.00;71.10
67901;DHT22;54700;51.796;10.956;2023-07-08T01:19:59;17.00;71.80
67901;DHT22;54700;51.796;10.956;2023-07-08T01:22:31;16.90;73.30
67901;DHT22;54700;51.796;10.956;2023-07-08T01:24:58;16.80;73.00
67901;DHT22;54700;51.796;10.956;2023-07-08T01:27:28;16.80;73.00
67901;DHT22;54700;51.796;10.956;2023-07-08T01:29:57;16.70;73.80
67901;DHT22;54700;51.796;10.956;2023-07-08T01:32:25;16.70;74.00
67901;DHT22;54700;51.796;10.956;2023-07-08T01:34:52;16.70;74.50
67901;DHT22;54700;51.796;10.956;2023-07-08T01:37:31;16.70;74.20
67901;DHT22;54700;51.796;10.956;2023-07-08T01:40:22;16.70;74.70
67901;DHT22;54700;51.796;10.956;2023-07-08T01:42:52;16.60;74.50
67901;DHT22;54700;51.796;10.956;2023-07-08T01:45:20;16.70;73.70
67901;DHT22;54700;51.796;10.956;2023-07-08T01:47:50;16.60;74.30
67901;DHT22;54700;51.796;10.956;2023-07-08T01:50:21;16.60;74.80
67901;DHT22;54700;51.796;10.956;2023-07-08T01:52:51;16.60;75.40
67901;DHT22;54700;51.796;10.956;2023-07-08T01:55:20;16.60;75.50
67901;DHT22;54700;51.796;10.956;2023-07-08T01:57:50;16.60;75.60
67901;DHT22;54700;51.796;10.956;2023-07-08T02:00:19;16.50;76.10
67901;DHT22;54700;51.796;10.956;2023-07-08T02:02:49;16.50;76.30
67901;DHT22;54700;51.796;10.956;2023-07-08T02:05:17;16.50;76.90
67901;DHT22;54700;51.796;10.956;2023-07-08T02:07:44;16.50;77.80
67901;DHT22;54700;51.796;10.956;2023-07-08T02:10:12;16.50;77.40
67901;DHT22;54700;51.796;10.956;2023-07-08T02:12:39;16.40;78.90
67901;DHT22;54700;51.796;10.956;2023-07-08T02:15:06;16.40;79.30
67901;DHT22;54700;51.796;10.956;2023-07-08T02:17:34;16.30;79.60
67901;DHT22;54700;51.796;10.956;2023-07-08T02:20:01;16.30;79.30
67901;DHT22;54700;51.796;10.956;2023-07-08T02:22:28;16.30;79.60
67901;DHT22;54700;51.796;10.956;2023-07-08T02:24:54;16.20;79.70
67901;DHT22;54700;51.796;10.956;2023-07-08T02:27:23;16.20;79.60
67901;DHT22;54700;51.796;10.956;2023-07-08T02:29:50;16.20;79.90
67901;DHT22;54700;51.796;10.956;2023-07-08T02:32:17;16.20;80.00
67901;DHT22;54700;51.796;10.956;2023-07-08T02:34:43;16.10;80.60
67901;DHT22;54700;51.796;10.956;2023-07-08T02:37:10;16.10;80.70
67901;DHT22;54700;51.796;10.956;2023-07-08T02:39:37;16.10;80.70
67901;DHT22;54700;51.796;10.956;2023-07-08T02:42:04;16.00;81.10
67901;DHT22;54700;51.796;10.956;2023-07-08T02:44:32;16.10;81.80
67901;DHT22;54700;51.796;10.956;2023-07-08T02:46:59;16.00;83.10
67901;DHT22;54700;51.796;10.956;2023-07-08T02:49:25;16.00;84.00
67901;DHT22;54700;51.796;10.956;2023-07-08T02:51:52;16.00;84.30
67901;DHT22;54700;51.796;10.956;2023-07-08T02:54:19;16.00;85.10
67901;DHT22;54700;51.796;10.956;2023-07-08T02:56:45;16.00;84.70
67901;DHT22;54700;51.796;10.956;2023-07-08T02:59:12;16.00;84.00
67901;DHT22;54700;51.796;10.956;2023-07-08T03:01:40;15.90;84.20
67901;DHT22;54700;51.796;10.956;2023-07-08T03:04:07;16.00;84.60
67901;DHT22;54700;51.796;10.956;2023-07-08T03:06:38;16.00;84.70
67901;DHT22;54700;51.796;10.956;2023-07-08T03:09:05;15.90;84.50
67901;DHT22;54700;51.796;10.956;2023-07-08T03:11:32;15.90;84.30
67901;DHT22;54700;51.796;10.956;2023-07-08T03:13:59;16.00;84.20
67901;DHT22;54700;51.796;10.956;2023-07-08T03:16:26;16.00;83.80
67901;DHT22;54700;51.796;10.956;2023-07-08T03:18:54;16.00;83.30
67901;DHT22;54700;51.796;10.956;2023-07-08T03:21:20;15.90;83.20
67901;DHT22;54700;51.796;10.956;2023-07-08T03:23:47;16.00;83.00
67901;DHT22;54700;51.796;10.956;2023-07-08T03:26:15;16.00;82.80
67901;DHT22;54700;51.796;10.956;2023-07-08T03:28:44;16.00;82.20
67901;DHT22;54700;51.796;10.956;2023-07-08T03:31:10;16.00;83.50
67901;DHT22;54700;51.796;10.956;2023-07-08T03:33:37;16.00;83.70
67901;DHT22;54700;51.796;10.956;2023-07-08T03:36:07;16.00;84.10
67901;DHT22;54700;51.796;10.956;2023-07-08T03:38:37;16.00;84.60
67901;DHT22;54700;51.796;10.956;2023-07-08T03:41:04;16.00;83.10
67901;DHT22;54700;51.796;10.956;2023-07-08T03:43:31;16.10;84.20
67901;DHT22;54700;51.796;10.956;2023-07-08T03:45:58;16.10;83.50
67901;DHT22;54700;51.796;10.956;2023-07-08T03:48:25;16.10;83.50
67901;DHT22;54700;51.796;10.956;2023-07-08T03:50:52;16.10;82.90
67901;DHT22;54700;51.796;10.956;2023-07-08T03:53:20;16.20;82.80
67901;DHT22;54700;51.796;10.956;2023-07-08T03:55:47;16.20;83.40
67901;DHT22;54700;51.796;10.956;2023-07-08T03:58:13;16.30;83.10
67901;DHT22;54700;51.796;10.956;2023-07-08T04:00:40;16.40;83.00
67901;DHT22;54700;51.796;10.956;2023-07-08T04:03:08;16.40;83.20
67901;DHT22;54700;51.796;10.956;2023-07-08T04:05:37;16.40;83.70
67901;DHT22;54700;51.796;10.956;2023-07-08T04:08:04;16.50;83.40
67901;DHT22;54700;51.796;10.956;2023-07-08T04:10:31;16.70;82.30
67901;DHT22;54700;51.796;10.956;2023-07-08T04:12:58;17.20;79.50
67901;DHT22;54700;51.796;10.956;2023-07-08T04:15:24;17.80;76.70
67901;DHT22;54700;51.796;10.956;2023-07-08T04:17:53;18.10;74.90
67901;DHT22;54700;51.796;10.956;2023-07-08T04:20:22;18.10;75.90
67901;DHT22;54700;51.796;10.956;2023-07-08T04:22:49;18.00;76.50
67901;DHT22;54700;51.796;10.956;2023-07-08T04:25:17;17.80;77.30
67901;DHT22;54700;51.796;10.956;2023-07-08T04:27:46;17.70;78.70
67901;DHT22;54700;51.796;10.956;2023-07-08T04:30:16;17.60;80.30
67901;DHT22;54700;51.796;10.956;2023-07-08T04:32:49;17.50;80.40
67901;DHT22;54700;51.796;10.956;2023-07-08T04:35:16;17.50;80.00
67901;DHT22;54700;51.796;10.956;2023-07-08T04:37:43;17.50;82.10
67901;DHT22;54700;51.796;10.956;2023-07-08T04:40:14;17.40;81.00
67901;DHT22;54700;51.796;10.956;2023-07-08T04:42:46;17.50;81.50
67901;DHT22;54700;51.796;10.956;2023-07-08T04:45:15;17.50;79.10
67901;DHT22;54700;51.796;10.956;2023-07-08T04:47:42;17.60;75.90
67901;DHT22;54700;51.796;10.956;2023-07-08T04:50:12;17.60;75.30
67901;DHT22;54700;51.796;10.956;2023-07-08T04:52:39;17.70;74.40
67901;DHT22;54700;51.796;10.956;2023-07-08T04:55:06;17.80;74.00
67901;DHT22;54700;51.796;10.956;2023-07-08T04:57:34;17.90;74.00
67901;DHT22;54700;51.796;10.956;2023-07-08T05:00:04;17.90;74.50
67901;DHT22;54700;51.796;10.956;2023-07-08T05:02:35;18.10;74.00
67901;DHT22;54700;51.796;10.956;2023-07-08T05:05:02;18.40;73.30
67901;DHT22;54700;51.796;10.956;2023-07-08T05:07:29;18.40;72.50
67901;DHT22;54700;51.796;10.956;2023-07-08T05:09:56;18.50;71.70
67901;DHT22;54700;51.796;10.956;2023-07-08T05:12:22;18.80;69.50
67901;DHT22;54700;51.796;10.956;2023-07-08T05:14:49;19.00;68.70
67901;DHT22;54700;51.796;10.956;2023-07-08T05:17:17;19.00;68.40
67901;DHT22;54700;51.796;10.956;2023-07-08T05:19:44;19.10;68.20
67901;DHT22;54700;51.796;10.956;2023-07-08T05:22:11;19.20;68.10
67901;DHT22;54700;51.796;10.956;2023-07-08T05:24:38;19.60;66.50
67901;DHT22;54700;51.796;10.956;2023-07-08T05:27:05;20.20;63.70
67901;DHT22;54700;51.796;10.956;2023-07-08T05:29:31;20.90;60.40
67901;DHT22;54700;51.796;10.956;2023-07-08T05:32:00;21.80;56.50
67901;DHT22;54700;51.796;10.956;2023-07-08T05:34:28;22.10;54.70
67901;DHT22;54700;51.796;10.956;2023-07-08T05:36:55;21.80;55.70
67901;DHT22;54700;51.796;10.956;2023-07-08T05:39:22;21.40;58.10
67901;DHT22;54700;51.796;10.956;2023-07-08T05:41:48;21.00;60.60
67901;DHT22;54700;51.796;10.956;2023-07-08T05:44:15;20.70;62.50
67901;DHT22;54700;51.796;10.956;2023-07-08T05:46:42;20.40;64.00
67901;DHT22;54700;51.796;10.956;2023-07-08T05:49:10;20.20;65.00
67901;DHT22;54700;51.796;10.956;2023-07-08T05:51:38;20.00;64.90
67901;DHT22;54700;51.796;10.956;2023-07-08T05:54:05;19.80;65.40
67901;DHT22;54700;51.796;10.956;2023-07-08T05:56:32;19.70;65.70
67901;DHT22;54700;51.796;10.956;2023-07-08T05:58:58;19.70;67.00
67901;DHT22;54700;51.796;10.956;2023-07-08T06:01:25;19.70;67.10
67901;DHT22;54700;51.796;10.956;2023-07-08T06:03:52;19.70;68.50
67901;DHT22;54700;51.796;10.956;2023-07-08T06:06:18;19.70;69.70
67901;DHT22;54700;51.796;10.956;2023-07-08T06:08:46;19.70;69.70
67901;DHT22;54700;51.796;10.956;2023-07-08T06:11:13;19.70;70.80
67901;DHT22;54700;51.796;10.956;2023-07-08T06:13:40;19.80;70.10
67901;DHT22;54700;51.796;10.956;2023-07-08T06:16:07;19.80;70.10
67901;DHT22;54700;51.796;10.956;2023-07-08T06:18:34;19.80;70.90
67901;DHT22;54700;51.796;10.956;2023-07-08T06:21:02;19.90;71.90
67901;DHT22;54700;51.796;10.956;2023-07-08T06:23:29;20.00;72.40
67901;DHT22;54700;51.796;10.956;2023-07-08T06:25:57;20.00;73.50
67901;DHT22;54700;51.796;10.956;2023-07-08T06:28:25;20.00;73.90
67901;DHT22;54700;51.796;10.956;2023-07-08T06:30:52;20.10;72.00
67901;DHT22;54700;51.796;10.956;2023-07-08T06:33:19;20.20;72.40
67901;DHT22;54700;51.796;10.956;2023-07-08T06:35:46;20.30;68.40
67901;DHT22;54700;51.796;10.956;2023-07-08T06:38:13;20.40;66.70
67901;DHT22;54700;51.796;10.956;2023-07-08T06:40:40;20.50;66.20
67901;DHT22;54700;51.796;10.956;2023-07-08T06:43:08;20.60;67.00
67901;DHT22;54700;51.796;10.956;2023-07-08T06:45:35;20.70;66.30
67901;DHT22;54700;51.796;10.956;2023-07-08T06:48:01;20.70;64.20
67901;DHT22;54700;51.796;10.956;2023-07-08T06:50:28;20.80;63.40
67901;DHT22;54700;51.796;10.956;2023-07-08T06:52:55;20.90;62.50
67901;DHT22;54700;51.796;10.956;2023-07-08T06:55:23;21.00;61.00
67901;DHT22;54700;51.796;10.956;2023-07-08T06:57:50;21.10;61.20
67901;DHT22;54700;51.796;10.956;2023-07-08T07:00:18;21.10;62.70
67901;DHT22;54700;51.796;10.956;2023-07-08T07:02:45;21.20;63.90
67901;DHT22;54700;51.796;10.956;2023-07-08T07:05:11;21.20;64.50
67901;DHT22;54700;51.796;10.956;2023-07-08T07:07:38;21.30;65.30
67901;DHT22;54700;51.796;10.956;2023-07-08T07:10:05;21.40;65.60
67901;DHT22;54700;51.796;10.956;2023-07-08T07:12:33;21.40;64.60
67901;DHT22;54700;51.796;10.956;2023-07-08T07:15:00;21.40;64.10
67901;DHT22;54700;51.796;10.956;2023-07-08T07:17:28;21.40;63.40
67901;DHT22;54700;51.796;10.956;2023-07-08T07:19:55;21.40;62.80
67901;DHT22;54700;51.796;10.956;2023-07-08T07:22:22;21.40;60.80
67901;DHT22;54700;51.796;10.956;2023-07-08T07:24:49;21.50;61.40
67901;DHT22;54700;51.796;10.956;2023-07-08T07:27:16;21.50;60.30
67901;DHT22;54700;51.796;10.956;2023-07-08T07:29:43;21.60;60.50
67901;DHT22;54700;51.796;10.956;2023-07-08T07:32:12;21.70;59.10
67901;DHT22;54700;51.796;10.956;2023-07-08T07:34:41;21.70;59.00
67901;DHT22;54700;51.796;10.956;2023-07-08T07:37:10;21.80;59.00
67901;DHT22;54700;51.796;10.956;2023-07-08T07:39:38;21.80;57.90
67901;DHT22;54700;51.796;10.956;2023-07-08T07:42:06;21.80;58.30
67901;DHT22;54700;51.796;10.956;2023-07-08T07:44:33;22.00;58.50
67901;DHT22;54700;51.796;10.956;2023-07-08T07:47:02;22.00;58.50
67901;DHT22;54700;51.796;10.956;2023-07-08T07:49:29;22.10;59.70
67901;DHT22;54700;51.796;10.956;2023-07-08T07:51:57;22.20;58.30
67901;DHT22;54700;51.796;10.956;2023-07-08T07:54:24;22.30;59.50
67901;DHT22;54700;51.796;10.956;2023-07-08T07:56:51;22.40;59.80
67901;DHT22;54700;51.796;10.956;2023-07-08T07:59:18;22.50;58.30
67901;DHT22;54700;51.796;10.956;2023-07-08T08:01:45;22.60;59.10
67901;DHT22;54700;51.796;10.956;2023-07-08T08:04:14;22.70;59.10
67901;DHT22;54700;51.796;10.956;2023-07-08T08:06:41;22.70;56.90
67901;DHT22;54700;51.796;10.956;2023-07-08T08:09:09;22.80;56.50
67901;DHT22;54700;51.796;10.956;2023-07-08T08:11:35;22.80;56.90
67901;DHT22;54700;51.796;10.956;2023-07-08T08:14:02;22.90;56.80
67901;DHT22;54700;51.796;10.956;2023-07-08T08:16:30;23.00;56.70
67901;DHT22;54700;51.796;10.956;2023-07-08T08:18:57;23.10;56.70
67901;DHT22;54700;51.796;10.956;2023-07-08T08:21:23;23.10;56.20
67901;DHT22;54700;51.796;10.956;2023-07-08T08:23:50;23.20;54.10
67901;DHT22;54700;51.796;10.956;2023-07-08T08:26:18;23.30;52.30
67901;DHT22;54700;51.796;10.956;2023-07-08T08:28:45;23.40;55.00
67901;DHT22;54700;51.796;10.956;2023-07-08T08:31:11;23.40;54.20
67901;DHT22;54700;51.796;10.956;2023-07-08T08:33:38;23.50;55.20
67901;DHT22;54700;51.796;10.956;2023-07-08T08:36:05;23.60;54.70
67901;DHT22;54700;51.796;10.956;2023-07-08T08:38:32;23.60;55.50
67901;DHT22;54700;51.796;10.956;2023-07-08T08:41:02;23.80;52.70
67901;DHT22;54700;51.796;10.956;2023-07-08T08:43:31;23.80;51.20
67901;DHT22;54700;51.796;10.956;2023-07-08T08:46:04;23.80;50.60
67901;DHT22;54700;51.796;10.956;2023-07-08T08:48:37;23.80;51.50
67901;DHT22;54700;51.796;10.956;2023-07-08T08:51:14;23.90;51.60
67901;DHT22;54700;51.796;10.956;2023-07-08T08:53:43;24.00;52.50
67901;DHT22;54700;51.796;10.956;2023-07-08T08:56:13;24.00;53.10
67901;DHT22;54700;51.796;10.956;2023-07-08T08:58:47;24.10;51.80
67901;DHT22;54700;51.796;10.956;2023-07-08T09:01:21;24.10;51.70
67901;DHT22;54700;51.796;10.956;2023-07-08T09:03:49;24.20;51.60
67901;DHT22;54700;51.796;10.956;2023-07-08T09:06:19;24.20;52.20
67901;DHT22;54700;51.796;10.956;2023-07-08T09:08:48;24.30;53.20
67901;DHT22;54700;51.796;10.956;2023-07-08T09:11:23;24.30;51.80
67901;DHT22;54700;51.796;10.956;2023-07-08T09:14:01;24.30;51.50
67901;DHT22;54700;51.796;10.956;2023-07-08T09:16:32;24.30;52.50
67901;DHT22;54700;51.796;10.956;2023-07-08T09:19:06;24.50;51.90
67901;DHT22;54700;51.796;10.956;2023-07-08T09:21:37;24.60;52.20
67901;DHT22;54700;51.796;10.956;2023-07-08T09:24:09;24.70;51.50
67901;DHT22;54700;51.796;10.956;2023-07-08T09:26:45;24.80;50.50
67901;DHT22;54700;51.796;10.956;2023-07-08T09:29:17;24.80;49.90
67901;DHT22;54700;51.796;10.956;2023-07-08T09:31:44;24.80;49.80
67901;DHT22;54700;51.796;10.956;2023-07-08T09:34:11;24.90;48.70
67901;DHT22;54700;51.796;10.956;2023-07-08T09:36:41;25.10;48.70
67901;DHT22;54700;51.796;10.956;2023-07-08T09:39:10;25.10;49.20
67901;DHT22;54700;51.796;10.956;2023-07-08T09:41:38;25.10;47.80
67901;DHT22;54700;51.796;10.956;2023-07-08T09:44:08;25.20;48.20
67901;DHT22;54700;51.796;10.956;2023-07-08T09:46:48;25.20;47.80
67901;DHT22;54700;51.796;10.956;2023-07-08T09:49:16;25.20;47.70
67901;DHT22;54700;51.796;10.956;2023-07-08T09:51:49;25.20;47.30
67901;DHT22;54700;51.796;10.956;2023-07-08T09:54:16;25.20;47.60
67901;DHT22;54700;51.796;10.956;2023-07-08T09:56:45;25.40;46.60
67901;DHT22;54700;51.796;10.956;2023-07-08T09:59:23;25.40;45.30
67901;DHT22;54700;51.796;10.956;2023-07-08T10:01:59;25.50;44.70
67901;DHT22;54700;51.796;10.956;2023-07-08T10:04:42;25.60;44.70
67901;DHT22;54700;51.796;10.956;2023-07-08T10:07:09;25.70;44.10
67901;DHT22;54700;51.796;10.956;2023-07-08T10:09:43;25.80;43.50
67901;DHT22;54700;51.796;10.956;2023-07-08T10:12:13;25.80;43.60
67901;DHT22;54700;51.796;10.956;2023-07-08T10:14:42;25.90;43.10
67901;DHT22;54700;51.796;10.956;2023-07-08T10:17:13;26.00;42.70
67901;DHT22;54700;51.796;10.956;2023-07-08T10:19:42;26.10;42.80
67901;DHT22;54700;51.796;10.956;2023-07-08T10:22:22;26.20;42.60
67901;DHT22;54700;51.796;10.956;2023-07-08T10:27:54;26.40;41.40
67901;DHT22;54700;51.796;10.956;2023-07-08T10:30:27;26.40;41.00
67901;DHT22;54700;51.796;10.956;2023-07-08T10:33:01;26.30;41.60
67901;DHT22;54700;51.796;10.956;2023-07-08T10:35:43;26.40;41.60
67901;DHT22;54700;51.796;10.956;2023-07-08T10:38:25;26.50;41.00
67901;DHT22;54700;51.796;10.956;2023-07-08T10:41:05;26.60;40.70
67901;DHT22;54700;51.796;10.956;2023-07-08T10:46:29;26.70;39.80
67901;DHT22;54700;51.796;10.956;2023-07-08T10:49:07;26.70;40.00
67901;DHT22;54700;51.796;10.956;2023-07-08T10:51:52;26.80;42.30
67901;DHT22;54700;51.796;10.956;2023-07-08T10:54:43;26.80;42.00
67901;DHT22;54700;51.796;10.956;2023-07-08T10:57:31;26.80;40.30
67901;DHT22;54700;51.796;10.956;2023-07-08T11:00:12;26.90;41.00
67901;DHT22;54700;51.796;10.956;2023-07-08T11:02:59;26.90;39.80
67901;DHT22;54700;51.796;10.956;2023-07-08T11:05:45;27.00;40.10
67901;DHT22;54700;51.796;10.956;2023-07-08T11:08:14;27.10;40.40
67901;DHT22;54700;51.796;10.956;2023-07-08T11:10:48;27.10;39.80
67901;DHT22;54700;51.796;10.956;2023-07-08T11:13:18;27.20;39.70
67901;DHT22;54700;51.796;10.956;2023-07-08T11:15:48;27.20;39.70
67901;DHT22;54700;51.796;10.956;2023-07-08T11:18:22;27.20;39.20
67901;DHT22;54700;51.796;10.956;2023-07-08T11:20:56;27.20;38.90
67901;DHT22;54700;51.796;10.956;2023-07-08T11:23:29;27.30;39.90
67901;DHT22;54700;51.796;10.956;2023-07-08T11:26:08;27.40;38.40
67901;DHT22;54700;51.796;10.956;2023-07-08T11:28:54;27.40;37.60
67901;DHT22;54700;51.796;10.956;2023-07-08T11:31:23;27.40;37.80
67901;DHT22;54700;51.796;10.956;2023-07-08T11:33:53;27.40;36.60
67901;DHT22;54700;51.796;10.956;2023-07-08T11:36:22;27.50;36.90
67901;DHT22;54700;51.796;10.956;2023-07-08T11:38:52;27.50;37.30
67901;DHT22;54700;51.796;10.956;2023-07-08T11:41:21;27.60;37.40
67901;DHT22;54700;51.796;10.956;2023-07-08T11:43:51;27.60;37.40
67901;DHT22;54700;51.796;10.956;2023-07-08T11:46:22;27.60;37.70
67901;DHT22;54700;51.796;10.956;2023-07-08T11:48:55;27.60;37.70
67901;DHT22;54700;51.796;10.956;2023-07-08T11:51:24;27.60;36.90
67901;DHT22;54700;51.796;10.956;2023-07-08T11:53:58;27.70;36.00
67901;DHT22;54700;51.796;10.956;2023-07-08T11:56:26;27.70;35.30
67901;DHT22;54700;51.796;10.956;2023-07-08T11:59:09;27.60;35.50
67901;DHT22;54700;51.796;10.956;2023-07-08T12:01:40;27.70;36.20
67901;DHT22;54700;51.796;10.956;2023-07-08T12:07:19;27.70;35.00
67901;DHT22;54700;51.796;10.956;2023-07-08T12:09:49;27.70;35.60
67901;DHT22;54700;51.796;10.956;2023-07-08T12:12:25;27.80;36.60
67901;DHT22;54700;51.796;10.956;2023-07-08T12:15:00;27.80;36.40
67901;DHT22;54700;51.796;10.956;2023-07-08T12:17:32;27.70;35.70
67901;DHT22;54700;51.796;10.956;2023-07-08T12:20:02;27.70;35.80
67901;DHT22;54700;51.796;10.956;2023-07-08T12:22:40;27.80;35.40
67901;DHT22;54700;51.796;10.956;2023-07-08T12:25:08;27.80;36.10
67901;DHT22;54700;51.796;10.956;2023-07-08T12:27:40;27.90;35.70
67901;DHT22;54700;51.796;10.956;2023-07-08T12:30:07;27.90;34.20
67901;DHT22;54700;51.796;10.956;2023-07-08T12:32:35;28.00;35.20
67901;DHT22;54700;51.796;10.956;2023-07-08T12:35:04;28.00;35.70
67901;DHT22;54700;51.796;10.956;2023-07-08T12:37:40;28.10;36.50
67901;DHT22;54700;51.796;10.956;2023-07-08T12:40:08;28.10;35.30
67901;DHT22;54700;51.796;10.956;2023-07-08T12:42:36;28.20;33.50
67901;DHT22;54700;51.796;10.956;2023-07-08T12:45:07;28.10;33.90
67901;DHT22;54700;51.796;10.956;2023-07-08T12:47:40;28.10;34.70
67901;DHT22;54700;51.796;10.956;2023-07-08T12:50:11;28.10;35.30
67901;DHT22;54700;51.796;10.956;2023-07-08T12:52:39;28.00;32.80
67901;DHT22;54700;51.796;10.956;2023-07-08T12:55:09;28.00;32.90
67901;DHT22;54700;51.796;10.956;2023-07-08T12:57:36;27.90;33.10
67901;DHT22;54700;51.796;10.956;2023-07-08T13:00:04;28.00;34.60
67901;DHT22;54700;51.796;10.956;2023-07-08T13:02:32;28.00;35.30
67901;DHT22;54700;51.796;10.956;2023-07-08T13:04:59;28.00;34.90
67901;DHT22;54700;51.796;10.956;2023-07-08T13:07:34;28.10;34.70
67901;DHT22;54700;51.796;10.956;2023-07-08T13:10:06;28.10;34.40
67901;DHT22;54700;51.796;10.956;2023-07-08T13:12:41;28.20;34.40
67901;DHT22;54700;51.796;10.956;2023-07-08T13:15:10;28.20;34.90
67901;DHT22;54700;51.796;10.956;2023-07-08T13:17:43;28.20;33.70
67901;DHT22;54700;51.796;10.956;2023-07-08T13:20:12;28.20;34.20
67901;DHT22;54700;51.796;10.956;2023-07-08T13:22:42;28.30;34.70
67901;DHT22;54700;51.796;10.956;2023-07-08T13:25:16;28.40;35.30
67901;DHT22;54700;51.796;10.956;2023-07-08T13:27:53;28.40;33.60
67901;DHT22;54700;51.796;10.956;2023-07-08T13:30:23;28.50;32.90
67901;DHT22;54700;51.796;10.956;2023-07-08T13:32:52;28.50;32.60
67901;DHT22;54700;51.796;10.956;2023-07-08T13:35:23;28.50;33.20
67901;DHT22;54700;51.796;10.956;2023-07-08T13:37:51;28.50;32.90
67901;DHT22;54700;51.796;10.956;2023-07-08T13:40:19;28.50;32.90
67901;DHT22;54700;51.796;10.956;2023-07-08T13:42:46;28.50;33.30
67901;DHT22;54700;51.796;10.956;2023-07-08T13:45:15;28.40;32.60
67901;DHT22;54700;51.796;10.956;2023-07-08T13:47:57;28.50;32.60
67901;DHT22;54700;51.796;10.956;2023-07-08T13:50:25;28.50;32.60
67901;DHT22;54700;51.796;10.956;2023-07-08T13:52:58;28.60;32.70
67901;DHT22;54700;51.796;10.956;2023-07-08T13:55:25;28.70;32.80
67901;DHT22;54700;51.796;10.956;2023-07-08T13:57:57;28.70;32.50
67901;DHT22;54700;51.796;10.956;2023-07-08T14:00:28;28.70;33.00
67901;DHT22;54700;51.796;10.956;2023-07-08T14:02:56;28.80;32.10
67901;DHT22;54700;51.796;10.956;2023-07-08T14:05:23;28.80;31.70
67901;DHT22;54700;51.796;10.956;2023-07-08T14:07:50;28.80;31.00
67901;DHT22;54700;51.796;10.956;2023-07-08T14:10:18;28.80;30.70
67901;DHT22;54700;51.796;10.956;2023-07-08T14:12:45;28.80;30.60
67901;DHT22;54700;51.796;10.956;2023-07-08T14:15:12;28.80;30.60
67901;DHT22;54700;51.796;10.956;2023-07-08T14:17:40;28.70;30.20
67901;DHT22;54700;51.796;10.956;2023-07-08T14:20:09;28.70;30.80
67901;DHT22;54700;51.796;10.956;2023-07-08T14:22:38;28.70;31.00
67901;DHT22;54700;51.796;10.956;2023-07-08T14:25:06;28.80;31.50
67901;DHT22;54700;51.796;10.956;2023-07-08T14:27:36;28.80;31.00
67901;DHT22;54700;51.796;10.956;2023-07-08T14:30:03;28.80;31.00
67901;DHT22;54700;51.796;10.956;2023-07-08T14:32:31;28.90;31.80
67901;DHT22;54700;51.796;10.956;2023-07-08T14:34:59;28.90;31.10
67901;DHT22;54700;51.796;10.956;2023-07-08T14:37:36;29.00;31.10
67901;DHT22;54700;51.796;10.956;2023-07-08T14:40:08;29.00;30.90
67901;DHT22;54700;51.796;10.956;2023-07-08T14:42:47;29.10;30.00
67901;DHT22;54700;51.796;10.956;2023-07-08T14:45:14;29.10;30.00
67901;DHT22;54700;51.796;10.956;2023-07-08T14:47:41;29.10;30.20
67901;DHT22;54700;51.796;10.956;2023-07-08T14:50:12;29.20;30.40
67901;DHT22;54700;51.796;10.956;2023-07-08T14:52:40;29.20;30.60
67901;DHT22;54700;51.796;10.956;2023-07-08T14:55:07;29.20;31.10
67901;DHT22;54700;51.796;10.956;2023-07-08T14:57:37;29.20;30.90
67901;DHT22;54700;51.796;10.956;2023-07-08T15:00:11;29.20;30.60
67901;DHT22;54700;51.796;10.956;2023-07-08T15:02:40;29.30;30.80
67901;DHT22;54700;51.796;10.956;2023-07-08T15:05:13;29.30;30.00
67901;DHT22;54700;51.796;10.956;2023-07-08T15:07:41;29.30;29.30
67901;DHT22;54700;51.796;10.956;2023-07-08T15:10:08;29.40;30.20
67901;DHT22;54700;51.796;10.956;2023-07-08T15:12:35;29.30;30.50
67901;DHT22;54700;51.796;10.956;2023-07-08T15:15:02;29.40;30.00
67901;DHT22;54700;51.796;10.956;2023-07-08T15:17:31;29.40;30.20
67901;DHT22;54700;51.796;10.956;2023-07-08T15:19:58;29.50;30.50
67901;DHT22;54700;51.796;10.956;2023-07-08T15:22:26;29.50;29.80
67901;DHT22;54700;51.796;10.956;2023-07-08T15:24:53;29.50;29.80
67901;DHT22;54700;51.796;10.956;2023-07-08T15:27:19;29.50;30.00
67901;DHT22;54700;51.796;10.956;2023-07-08T15:29:48;29.50;30.00
67901;DHT22;54700;51.796;10.956;2023-07-08T15:32:15;29.60;29.90
67901;DHT22;54700;51.796;10.956;2023-07-08T15:34:46;29.60;29.50
67901;DHT22;54700;51.796;10.956;2023-07-08T15:37:12;29.60;29.60